Mary Esther, FL (32569)

4:55 AM CDT on March 23, 2017 (GMT -0500)
mary esther | | Change Station

Elev 20 ft 30.41 °N, 86.68 °W | Updated 2 seconds ago

Clear
Clear
62.5 °F
Feels Like 62.5 °F
N
1.0
Wind Variable Wind from East

Today
High -- | Low -- °F
--% Chance of Precip.
Yesterday
High -- | Low -- °F
Precip. -- in
Pressure 30.15 in
Visibility 10.0 miles
Clouds Clear
Dew Point 46 °F
Humidity 55%
Rainfall 0.00 in
Snow Depth Not available.
6:46 AM 7:00 PM
Waning Crescent, 24% visible
METAR KHRT 230858Z 03010KT 10SM CLR 18/05 A3014 RMK AO2A SLP208 P0000 60000 T01810054 58005 $
Pressure 30.15 in
Visibility 10.0 miles
Clouds Clear
Dew Point 46 °F
Humidity 55%
Rainfall 0.00 in
Snow Depth Not available.
6:46 AM 7:00 PM
Waning Crescent, 24% visible
METAR KHRT 230858Z 03010KT 10SM CLR 18/05 A3014 RMK AO2A SLP208 P0000 60000 T01810054 58005 $

Get Severe Weather Alerts

Thanks for signing up!

Be on the lookout for a verification email in your inbox.

You'll start receiving the daily forecast at 8 AM.

×

10-Day Weather Forecast

Almanac

Astronomy

Mar. 23, 2017 Rise Set
Actual Time
Civil Twilight
Nautical Twilight
Astronomical Twilight
Moon
Length of Visible Light
Length of Day
Tomorrow will be .
, % of the Moon is Illuminated

Today's Extremes

State Highs State Lows

Community

WunderPhotos

Upload Photos

1,962,540 photos uploaded!

WunderBlog® & News

Nearby

Air Quality

  Air Quality AQ Index Pollutant
Not available.

Snow Depth

Station Depth Elevation

Earthquake Activity

City Distance Mag. Time & Date
Minimum magnitude displayed is 2.5.

Earthquake Activity

City Distance Mag. Time & Date
Minimum magnitude displayed is 2.5.

Coastal Water Temperatures

Place Temperature

Stations

Nearby Weather Stations

Station Location Temp. Windchill Dew Point Humidity Wind Precip. Elev Updated Type
                   

Watches & Warnings

There are currently no watches in effect.